Time;durP1;ratioP1;P1;durP2;ratioP2;P2;SDS_P1;SDS_P2;PMS_P1;PMS_P2;Temp;Humidity;BMP_temperature;BMP_pressure;BME280_temperature;BME280_humidity;BME280_pressure;Samples;Min_cycle;Max_cycle;Signal;HPM_P1;HPM_P2
2022/07/20 00:01:52;;;;;;;3.83;2.05;;;;;;;27.27;37.08;101272.75;6184564;23;20012;-86
2022/07/20 00:04:17;;;;;;;3.58;2.25;;;;;;;27.22;36.79;101279.63;6159058;23;20001;-89
2022/07/20 00:06:43;;;;;;;7.47;2.22;;;;;;;27.09;36.99;101284.13;6184071;23;19997;-89
2022/07/20 00:11:53;;;;;;;3.22;2.08;;;;;;;27.16;36.65;101294.50;6186285;23;20016;-90
2022/07/20 00:14:19;;;;;;;4.60;2.50;;;;;;;27.08;36.75;101297.34;6159734;23;20009;-89
2022/07/20 00:16:44;;;;;;;5.18;2.17;;;;;;;26.90;37.43;101293.03;6160233;23;20013;-91
2022/07/20 00:19:10;;;;;;;3.30;1.90;;;;;;;27.07;36.98;101304.19;6161631;23;20005;-86
2022/07/20 00:21:36;;;;;;;2.72;2.00;;;;;;;26.96;36.78;101297.81;6161410;23;20089;-85
2022/07/20 00:24:02;;;;;;;4.75;1.60;;;;;;;26.85;36.85;101296.31;6185934;23;20333;-93
2022/07/20 00:26:27;;;;;;;3.72;1.55;;;;;;;26.77;36.64;101301.97;6161024;23;20167;-85
2022/07/20 00:28:53;;;;;;;5.22;1.85;;;;;;;26.66;36.01;101303.22;6161039;23;20033;-90
2022/07/20 00:31:19;;;;;;;3.33;1.33;;;;;;;26.77;35.93;101315.19;6161062;23;20005;-85
2022/07/20 00:33:48;;;;;;;2.92;1.35;;;;;;;26.47;36.38;101310.94;6161703;23;20005;-92
2022/07/20 00:36:18;;;;;;;3.42;1.40;;;;;;;26.44;36.12;101306.13;6186433;23;20067;-89
2022/07/20 00:38:44;;;;;;;3.78;1.30;;;;;;;26.65;35.79;101307.22;6161231;23;20472;-85
2022/07/20 00:41:10;;;;;;;3.67;1.15;;;;;;;26.59;36.09;101317.28;6161447;23;20100;-86
2022/07/20 00:43:59;;;;;;;5.30;1.48;;;;;;;26.38;36.13;101309.78;6160042;23;20064;-85
2022/07/20 00:46:27;;;;;;;2.33;1.23;;;;;;;26.19;36.26;101325.03;6161339;23;20348;-89
2022/07/20 00:48:53;;;;;;;4.32;1.33;;;;;;;26.42;35.60;101328.19;6161052;23;20016;-86
2022/07/20 00:51:19;;;;;;;6.38;1.60;;;;;;;26.29;36.08;101319.38;6187101;23;20336;-85
2022/07/20 00:53:45;;;;;;;3.13;1.27;;;;;;;26.49;35.54;101328.13;6161325;23;20009;-86
2022/07/20 00:56:12;;;;;;;5.38;1.52;;;;;;;26.15;36.20;101327.06;6160809;23;20089;-85
2022/07/20 00:58:37;;;;;;;7.13;2.38;;;;;;;26.10;36.56;101338.69;6160267;23;20401;-85
2022/07/20 01:01:03;;;;;;;4.40;1.42;;;;;;;26.37;35.94;101334.16;6186869;23;20001;-89
2022/07/20 01:03:30;;;;;;;4.68;1.58;;;;;;;26.31;35.98;101333.00;6185476;23;20001;-91
2022/07/20 01:05:55;;;;;;;3.72;1.85;;;;;;;26.49;35.75;101328.13;6186881;23;20013;-85
2022/07/20 01:08:21;;;;;;;4.07;1.60;;;;;;;26.60;35.25;101332.88;6160141;23;20144;-90
2022/07/20 01:10:47;;;;;;;4.40;1.88;;;;;;;26.59;35.73;101329.28;6160664;23;20014;-91
2022/07/20 01:13:13;;;;;;;8.00;2.00;;;;;;;26.53;35.77;101331.72;6160278;23;20021;-89
2022/07/20 01:15:38;;;;;;;3.10;1.30;;;;;;;26.59;35.98;101325.69;6159817;23;20005;-85
2022/07/20 01:18:04;;;;;;;3.80;1.45;;;;;;;26.44;36.11;101322.16;6159364;23;20012;-88
2022/07/20 01:20:30;;;;;;;4.70;1.77;;;;;;;26.49;36.08;101330.16;6185157;23;20349;-92
2022/07/20 01:22:56;;;;;;;2.95;1.52;;;;;;;26.51;35.88;101327.72;6160398;23;20429;-89
2022/07/20 01:25:22;;;;;;;7.95;1.80;;;;;;;26.48;36.11;101320.16;6160578;23;20011;-86
2022/07/20 01:27:48;;;;;;;8.38;1.88;;;;;;;26.10;36.54;101330.28;6160372;23;20027;-85
2022/07/20 01:30:14;;;;;;;5.97;1.85;;;;;;;25.93;36.76;101341.13;6160043;23;20028;-84
2022/07/20 01:32:40;;;;;;;5.63;1.60;;;;;;;25.65;37.09;101338.34;6160127;23;20009;-86
2022/07/20 01:35:06;;;;;;;4.93;1.92;;;;;;;26.00;36.38;101334.72;6161318;23;20345;-90
2022/07/20 01:37:31;;;;;;;4.38;1.90;;;;;;;26.01;36.25;101339.13;6159726;23;20001;-85
2022/07/20 01:39:57;;;;;;;5.60;1.80;;;;;;;25.97;36.39;101336.31;6186448;23;20143;-84
2022/07/20 01:42:23;;;;;;;5.68;1.80;;;;;;;25.79;36.71;101332.78;6160645;23;20005;-88
2022/07/20 01:44:49;;;;;;;4.68;1.30;;;;;;;26.02;36.26;101337.91;6160497;23;20005;-85
2022/07/20 01:47:15;;;;;;;4.88;1.60;;;;;;;26.02;36.26;101343.50;6159923;23;20036;-89
2022/07/20 01:49:41;;;;;;;4.72;1.80;;;;;;;25.98;36.40;101349.09;6161111;23;20013;-88
2022/07/20 01:52:06;;;;;;;7.15;2.20;;;;;;;25.88;36.54;101347.13;6159933;23;20008;-85
2022/07/20 01:54:32;;;;;;;5.20;2.20;;;;;;;25.77;36.83;101346.38;6159835;23;20437;-85
2022/07/20 01:56:58;;;;;;;3.60;1.73;;;;;;;25.89;36.51;101345.94;6159928;23;20033;-87
2022/07/20 01:59:23;;;;;;;3.47;1.60;;;;;;;25.85;36.52;101347.97;6159931;23;20009;-89
2022/07/20 02:01:49;;;;;;;4.88;2.10;;;;;;;25.74;36.94;101347.16;6159592;23;20491;-91
2022/07/20 02:04:15;;;;;;;6.05;1.92;;;;;;;25.75;36.82;101340.38;6159871;23;20452;-87
2022/07/20 02:06:41;;;;;;;5.57;1.83;;;;;;;25.73;37.01;101339.97;6159996;23;20009;-86
2022/07/20 02:09:06;;;;;;;5.63;2.13;;;;;;;25.73;37.04;101351.97;6184616;23;20032;-85
2022/07/20 02:11:32;;;;;;;10.95;2.38;;;;;;;25.75;36.64;101345.97;6159780;23;20012;-85
2022/07/20 02:13:58;;;;;;;4.88;1.98;;;;;;;25.57;37.03;101353.56;6159923;23;20001;-84
2022/07/20 02:16:23;;;;;;;5.65;2.08;;;;;;;25.63;36.78;101349.97;6159847;23;20013;-85
2022/07/20 02:18:57;;;;;;;5.38;2.15;;;;;;;25.61;37.10;101359.94;6160333;23;20322;-92
2022/07/20 02:21:24;;;;;;;8.18;2.25;;;;;;;25.58;36.99;101363.53;6160516;23;20013;-85
2022/07/20 02:23:50;;;;;;;5.55;1.95;;;;;;;25.64;36.79;101368.34;6160216;23;20025;-84
2022/07/20 02:26:16;;;;;;;4.97;1.75;;;;;;;25.62;36.52;101378.34;6159660;23;19997;-85
2022/07/20 02:28:42;;;;;;;7.05;2.25;;;;;;;25.53;36.77;101378.72;6160000;23;20016;-90
2022/07/20 02:31:08;;;;;;;5.25;1.90;;;;;;;25.38;36.96;101391.13;6160109;23;20013;-86
2022/07/20 02:33:34;;;;;;;7.40;2.45;;;;;;;25.42;36.88;101392.72;6159859;23;20005;-87
2022/07/20 02:36:00;;;;;;;4.07;1.80;;;;;;;25.39;36.71;101393.53;6160371;23;20012;-85
2022/07/20 02:38:26;;;;;;;3.70;1.75;;;;;;;25.27;36.70;101395.91;6159684;23;20332;-92
2022/07/20 02:40:52;;;;;;;5.45;2.17;;;;;;;25.31;36.69;101397.50;6160239;23;20084;-85
2022/07/20 02:43:18;;;;;;;6.50;3.00;;;;;;;25.28;36.54;101391.91;6159743;23;20028;-86
2022/07/20 02:45:44;;;;;;;5.43;2.05;;;;;;;25.23;36.72;101398.69;6159855;23;20012;-90
2022/07/20 02:48:10;;;;;;;4.05;1.70;;;;;;;25.33;36.70;101402.72;6159738;23;20009;-87
2022/07/20 02:50:38;;;;;;;3.13;1.50;;;;;;;25.29;36.37;101408.28;6160247;23;20094;-85
2022/07/20 02:53:05;;;;;;;3.75;1.80;;;;;;;25.25;36.12;101410.31;6185722;23;20084;-84
2022/07/20 02:55:30;;;;;;;5.10;1.70;;;;;;;25.43;35.85;101413.91;6159464;23;20427;-87
2022/07/20 02:57:57;;;;;;;3.78;1.45;;;;;;;25.31;35.83;101411.47;6159697;23;20005;-85
2022/07/20 03:00:22;;;;;;;5.60;1.90;;;;;;;25.38;36.05;101405.91;6159916;23;20012;-85
2022/07/20 03:02:49;;;;;;;4.63;2.20;;;;;;;25.43;35.84;101410.31;6159229;23;20001;-87
2022/07/20 03:05:14;;;;;;;6.50;2.40;;;;;;;25.45;35.75;101419.88;6146018;23;20017;-86
2022/07/20 03:07:40;;;;;;;4.03;1.30;;;;;;;25.44;35.73;101415.50;6130170;23;20009;-86
2022/07/20 03:10:07;;;;;;;4.57;1.70;;;;;;;25.46;35.56;101420.69;6129878;23;20010;-87
2022/07/20 03:12:33;;;;;;;5.05;1.90;;;;;;;25.49;35.27;101428.31;6155905;23;20496;-88
2022/07/20 03:14:58;;;;;;;4.20;1.65;;;;;;;25.36;35.80;101424.28;6129755;23;20044;-88
2022/07/20 03:17:24;;;;;;;3.60;1.50;;;;;;;25.42;35.60;101437.47;6129973;23;20013;-85
2022/07/20 03:19:50;;;;;;;5.55;2.03;;;;;;;25.26;36.08;101439.88;6130429;23;20008;-84
2022/07/20 03:22:16;;;;;;;5.38;1.73;;;;;;;25.21;35.98;101442.25;6129505;23;20314;-86
2022/07/20 03:24:42;;;;;;;4.50;1.85;;;;;;;25.27;35.77;101444.25;6130052;23;20001;-85
2022/07/20 03:27:08;;;;;;;2.58;1.40;;;;;;;25.23;36.05;101446.22;6129707;23;20012;-92
2022/07/20 03:29:34;;;;;;;4.00;1.52;;;;;;;25.20;35.96;101449.03;6129648;23;20096;-91
2022/07/20 03:32:00;;;;;;;4.32;1.77;;;;;;;25.30;35.69;101451.84;6129541;23;20463;-87
2022/07/20 03:34:26;;;;;;;9.35;2.05;;;;;;;25.32;35.84;101454.25;6129975;23;20047;-85
2022/07/20 03:36:52;;;;;;;7.05;1.83;;;;;;;25.29;36.16;101458.63;6129778;23;19998;-86
2022/07/20 03:39:17;;;;;;;5.25;2.17;;;;;;;25.03;36.38;101456.16;6129420;23;20002;-91
2022/07/20 03:41:43;;;;;;;3.60;1.70;;;;;;;24.99;36.65;101453.34;6129351;23;20013;-84
2022/07/20 03:44:09;;;;;;;4.65;2.30;;;;;;;24.87;36.84;101450.91;6130077;23;20089;-84
2022/07/20 03:46:35;;;;;;;10.98;2.65;;;;;;;25.00;36.65;101459.72;6129799;23;20488;-88
2022/07/20 03:49:01;;;;;;;3.65;2.00;;;;;;;24.92;37.21;101464.50;6129684;23;20040;-93
2022/07/20 03:51:27;;;;;;;7.22;2.25;;;;;;;24.84;37.24;101466.47;6129157;23;20006;-85
2022/07/20 03:53:53;;;;;;;5.65;3.42;;;;;;;24.80;36.99;101462.06;6131147;23;20398;-84
2022/07/20 03:56:18;;;;;;;4.93;2.08;;;;;;;24.68;37.51;101454.81;6132214;23;20056;-92
2022/07/20 03:58:44;;;;;;;3.22;1.60;;;;;;;24.74;37.17;101463.63;6131542;23;20013;-87
2022/07/20 04:01:10;;;;;;;2.88;1.90;;;;;;;24.54;37.70;101477.09;6131152;23;20473;-85
2022/07/20 04:03:36;;;;;;;5.78;2.15;;;;;;;24.33;38.06;101481.38;6131404;23;20006;-92
2022/07/20 04:06:02;;;;;;;5.90;2.60;;;;;;;24.39;38.08;101476.22;6131129;23;20027;-90
2022/07/20 04:08:28;;;;;;;11.23;2.20;;;;;;;24.47;37.75;101477.06;6131451;23;20033;-85
2022/07/20 04:10:54;;;;;;;4.93;2.70;;;;;;;24.54;37.66;101477.88;6131888;23;20393;-88
2022/07/20 04:13:20;;;;;;;6.75;1.77;;;;;;;24.38;38.04;101477.41;6131506;23;20036;-87
2022/07/20 04:15:45;;;;;;;8.23;2.85;;;;;;;24.39;37.92;101481.00;6131471;23;20040;-84
2022/07/20 04:18:11;;;;;;;11.63;2.50;;;;;;;24.42;37.88;101475.44;6131115;23;20013;-85
2022/07/20 04:20:37;;;;;;;6.45;2.40;;;;;;;24.42;37.85;101485.81;6131370;23;20009;-84
2022/07/20 04:23:02;;;;;;;10.73;3.40;;;;;;;24.55;37.77;101487.88;6131189;23;20010;-83
2022/07/20 04:25:28;;;;;;;5.30;2.20;;;;;;;24.42;38.02;101491.41;6131003;23;20036;-85
2022/07/20 04:27:54;;;;;;;13.15;3.22;;;;;;;24.39;38.17;101489.38;6130988;23;20516;-87
2022/07/20 04:30:19;;;;;;;5.97;1.90;;;;;;;24.42;38.19;101491.41;6131108;23;20013;-84
2022/07/20 04:32:45;;;;;;;5.70;1.83;;;;;;;24.35;38.06;101495.75;6131239;23;20337;-84
2022/07/20 04:35:11;;;;;;;4.95;2.05;;;;;;;24.39;38.03;101500.53;6131848;23;20463;-92
2022/07/20 04:37:38;;;;;;;3.67;1.60;;;;;;;24.35;37.96;101500.53;6131305;23;20009;-84
2022/07/20 04:40:05;;;;;;;6.68;2.40;;;;;;;24.41;38.04;101500.94;6131303;23;20009;-85
2022/07/20 04:42:31;;;;;;;2.80;1.70;;;;;;;24.40;38.04;101499.34;6131196;23;20480;-85
2022/07/20 04:44:57;;;;;;;3.83;1.70;;;;;;;24.44;37.99;101511.38;6131820;23;20013;-89
2022/07/20 04:47:22;;;;;;;5.68;2.08;;;;;;;24.48;37.86;101514.97;6131241;23;20072;-87
2022/07/20 04:49:48;;;;;;;4.80;2.13;;;;;;;24.41;38.12;101523.28;6131834;23;20010;-84
2022/07/20 04:52:14;;;;;;;5.90;2.25;;;;;;;24.38;38.01;101512.91;6131450;23;20352;-85
2022/07/20 04:54:41;;;;;;;8.60;2.30;;;;;;;24.42;37.93;101524.94;6130950;23;20498;-88
2022/07/20 04:57:06;;;;;;;5.88;2.28;;;;;;;24.44;37.89;101526.13;6130919;23;20009;-86
2022/07/20 04:59:32;;;;;;;3.92;1.70;;;;;;;24.53;37.61;101525.78;6131074;23;20008;-89
2022/07/20 05:01:58;;;;;;;4.88;2.05;;;;;;;24.50;37.78;101526.56;6130835;23;20012;-86
2022/07/20 05:04:24;;;;;;;6.68;2.10;;;;;;;24.56;37.77;101538.94;6160666;23;20005;-91
2022/07/20 05:06:50;;;;;;;7.22;2.25;;;;;;;24.59;37.48;101549.38;6160564;23;20005;-85
2022/07/20 05:09:15;;;;;;;9.68;2.17;;;;;;;24.55;37.43;101545.75;6160245;23;20015;-86
2022/07/20 05:11:41;;;;;;;5.38;2.80;;;;;;;24.66;37.46;101543.81;6160257;23;20009;-85
2022/07/20 05:14:10;;;;;;;4.65;1.73;;;;;;;24.83;37.04;101534.72;6160321;23;20100;-84
2022/07/20 05:16:36;;;;;;;3.60;1.57;;;;;;;24.70;37.74;101541.84;6186792;23;20059;-84
2022/07/20 05:19:02;;;;;;;10.70;3.20;;;;;;;24.57;37.92;101537.78;6160860;23;20227;-86
2022/07/20 05:21:28;;;;;;;4.00;1.92;;;;;;;24.80;37.54;101546.72;6159990;23;20031;-84
2022/07/20 05:23:54;;;;;;;6.03;2.28;;;;;;;24.90;37.26;101548.75;6159958;23;20512;-85
2022/07/20 05:26:20;;;;;;;4.70;1.70;;;;;;;24.94;37.11;101559.13;6160217;23;20009;-91
2022/07/20 05:28:45;;;;;;;5.18;1.83;;;;;;;25.09;36.86;101556.06;6160247;23;20016;-86
2022/07/20 05:31:13;;;;;;;2.78;1.52;;;;;;;25.17;36.87;101559.69;6160664;23;20009;-89
2022/07/20 05:33:39;;;;;;;5.63;1.95;;;;;;;25.25;36.90;101571.72;6186103;23;20005;-93
2022/07/20 05:36:05;;;;;;;5.28;2.25;;;;;;;25.33;37.06;101574.13;6160848;23;20146;-85
2022/07/20 05:38:31;;;;;;;6.55;1.92;;;;;;;25.17;37.29;101576.47;6160910;23;20009;-84
2022/07/20 05:40:57;;;;;;;6.68;2.38;;;;;;;25.18;37.62;101578.06;6161804;23;20064;-91
2022/07/20 05:43:22;;;;;;;4.00;1.63;;;;;;;25.31;37.64;101575.72;6162536;23;20035;-90
2022/07/20 05:45:48;;;;;;;4.45;1.95;;;;;;;25.31;37.48;101575.72;6188155;23;20005;-90
2022/07/20 05:48:14;;;;;;;5.90;1.88;;;;;;;25.36;37.76;101587.31;6187412;23;20019;-88
2022/07/20 05:50:41;;;;;;;4.45;1.83;;;;;;;25.66;37.15;101580.63;6162246;23;20008;-88
2022/07/20 05:53:07;;;;;;;5.85;1.80;;;;;;;25.55;37.38;101572.22;6161286;23;20016;-91
2022/07/20 05:55:34;;;;;;;3.90;1.65;;;;;;;25.64;37.50;101580.22;6161492;23;20001;-90
2022/07/20 05:58:00;;;;;;;4.82;1.60;;;;;;;25.58;37.52;101588.19;6162769;23;20009;-90
2022/07/20 06:00:26;;;;;;;6.97;1.73;;;;;;;25.96;37.05;101585.91;6160960;23;20000;-89
2022/07/20 06:02:52;;;;;;;6.53;1.95;;;;;;;26.12;36.79;101588.31;6186054;23;20012;-90
2022/07/20 06:05:17;;;;;;;2.38;1.35;;;;;;;26.11;36.78;101586.72;6160716;23;20017;-89
2022/07/20 06:07:43;;;;;;;5.68;1.85;;;;;;;26.15;36.76;101596.75;6161334;23;20009;-90
2022/07/20 06:10:08;;;;;;;3.00;1.55;;;;;;;26.25;36.44;101595.94;6185533;23;20019;-90
2022/07/20 06:12:34;;;;;;;2.60;1.33;;;;;;;26.25;36.26;101595.13;6160671;23;20095;-89
2022/07/20 06:15:00;;;;;;;2.60;1.40;;;;;;;26.02;36.56;101594.72;6160335;23;20008;-92
2022/07/20 06:17:36;;;;;;;3.88;1.90;;;;;;;26.03;36.04;101590.72;6162277;23;20009;-93
2022/07/20 06:20:10;;;;;;;4.35;2.08;;;;;;;26.05;36.24;101621.91;6161577;23;20012;-89
2022/07/20 06:22:36;;;;;;;3.45;1.58;;;;;;;25.79;36.56;101623.06;6161336;23;20004;-90
2022/07/20 06:25:03;;;;;;;3.95;1.60;;;;;;;25.86;36.45;101620.28;6160979;23;20004;-88
2022/07/20 06:27:29;;;;;;;3.30;1.20;;;;;;;26.07;35.87;101617.53;6161493;23;20068;-92
2022/07/20 06:29:55;;;;;;;7.22;2.13;;;;;;;26.10;35.95;101627.13;6161472;23;20005;-92
2022/07/20 06:32:20;;;;;;;4.88;1.42;;;;;;;26.10;35.87;101627.13;6161742;23;20001;-89
2022/07/20 06:34:46;;;;;;;3.50;1.27;;;;;;;25.91;36.08;101643.09;6161485;23;20016;-90
2022/07/20 06:37:12;;;;;;;3.75;1.20;;;;;;;26.07;35.63;101630.72;6161854;23;20032;-91
2022/07/20 06:39:37;;;;;;;3.80;1.58;;;;;;;26.13;35.56;101637.53;6161818;23;20336;-88
2022/07/20 06:42:03;;;;;;;9.00;2.05;;;;;;;26.36;35.14;101625.94;6161833;23;20055;-89
2022/07/20 06:44:29;;;;;;;2.50;1.20;;;;;;;26.44;35.29;101625.56;6160304;23;20341;-91
2022/07/20 06:46:54;;;;;;;3.25;1.30;;;;;;;26.23;35.57;101633.97;6186241;23;20005;-89
2022/07/20 06:49:20;;;;;;;2.83;0.90;;;;;;;26.14;35.14;101625.13;6184867;23;20447;-89
2022/07/20 06:51:45;;;;;;;1.98;1.20;;;;;;;26.19;34.68;101630.34;6186085;23;20086;-88
2022/07/20 06:54:11;;;;;;;5.80;0.98;;;;;;;26.23;34.67;101642.34;6160727;23;20444;-89
2022/07/20 06:56:37;;;;;;;2.03;0.90;;;;;;;26.34;34.32;101656.38;6161576;23;20029;-87
2022/07/20 06:59:03;;;;;;;1.30;0.60;;;;;;;26.20;34.47;101657.94;6163124;23;20008;-88
2022/07/20 07:01:29;;;;;;;7.82;1.60;;;;;;;26.06;34.96;101649.50;6164265;23;20416;-88
2022/07/20 07:03:54;;;;;;;1.70;0.68;;;;;;;26.14;34.58;101653.13;6162020;23;20016;-89
2022/07/20 07:06:21;;;;;;;1.25;0.47;;;;;;;26.06;34.96;101657.91;6162178;23;20016;-90
2022/07/20 07:08:47;;;;;;;1.10;0.73;;;;;;;26.51;33.96;101666.78;6160850;23;20044;-87
2022/07/20 07:11:13;;;;;;;1.73;0.60;;;;;;;26.64;34.13;101661.59;6161765;23;20001;-88
2022/07/20 07:13:38;;;;;;;1.33;0.60;;;;;;;26.58;34.40;101666.81;6160838;23;20047;-90
2022/07/20 07:16:04;;;;;;;2.40;0.95;;;;;;;26.08;34.53;101666.75;6162316;23;20013;-89
2022/07/20 07:18:30;;;;;;;1.33;0.60;;;;;;;26.34;34.42;101670.38;6161611;23;20013;-87
2022/07/20 07:20:55;;;;;;;1.17;0.70;;;;;;;26.37;34.38;101664.75;6161202;23;20068;-88
2022/07/20 07:23:21;;;;;;;1.55;0.70;;;;;;;26.54;33.99;101669.63;6162590;23;20096;-89
2022/07/20 07:25:46;;;;;;;1.73;0.70;;;;;;;26.78;33.72;101667.19;6162102;23;20009;-85
2022/07/20 07:28:12;;;;;;;1.42;0.70;;;;;;;26.72;33.75;101677.22;6163597;23;20052;-90
2022/07/20 07:30:38;;;;;;;1.40;0.70;;;;;;;26.50;33.91;101674.41;6163146;23;20005;-87
2022/07/20 07:33:04;;;;;;;2.80;0.80;;;;;;;26.51;33.48;101673.19;6164652;23;20340;-89
2022/07/20 07:35:30;;;;;;;0.95;0.47;;;;;;;26.51;33.30;101676.00;6162933;23;20451;-84
2022/07/20 07:37:55;;;;;;;1.15;0.60;;;;;;;26.53;33.13;101670.03;6163686;23;20008;-89
2022/07/20 07:40:21;;;;;;;3.42;0.52;;;;;;;26.66;33.00;101682.41;6164247;23;20068;-90
2022/07/20 07:42:46;;;;;;;0.73;0.60;;;;;;;26.33;33.67;101688.38;6164363;23;20001;-91
2022/07/20 07:45:12;;;;;;;0.85;0.60;;;;;;;26.16;33.72;101687.16;6164560;23;20063;-92
2022/07/20 07:47:38;;;;;;;2.10;0.50;;;;;;;26.12;33.56;101692.75;6190301;23;20013;-90
2022/07/20 07:50:06;;;;;;;2.55;0.90;;;;;;;25.90;33.71;101691.06;6164575;23;20009;-89
2022/07/20 07:52:32;;;;;;;3.08;0.80;;;;;;;26.00;33.71;101704.34;6151756;23;20005;-87
2022/07/20 07:54:57;;;;;;;15.38;1.35;;;;;;;26.17;33.73;101705.56;6187436;23;20008;-90
2022/07/20 07:57:23;;;;;;;3.60;0.98;;;;;;;26.08;33.66;101705.16;6182579;23;20013;-88
2022/07/20 07:59:49;;;;;;;2.83;0.30;;;;;;;26.04;33.70;101702.31;6171920;23;20005;-85
2022/07/20 08:02:14;;;;;;;0.82;0.70;;;;;;;26.32;33.43;101696.00;6168112;23;20013;-88
2022/07/20 08:04:40;;;;;;;9.07;1.70;;;;;;;26.51;33.30;101695.63;6185424;23;20013;-87
2022/07/20 08:07:06;;;;;;;0.77;0.30;;;;;;;26.60;33.17;101702.84;6138052;23;20001;-86
2022/07/20 08:09:33;;;;;;;1.42;0.40;;;;;;;26.61;32.94;101696.06;6137886;23;20009;-88
2022/07/20 08:11:59;;;;;;;2.30;0.35;;;;;;;26.73;32.72;101692.81;6137473;23;20417;-87
2022/07/20 08:14:24;;;;;;;3.80;1.30;;;;;;;26.92;32.74;101698.03;6137549;23;20005;-85
2022/07/20 08:16:50;;;;;;;0.65;0.50;;;;;;;27.02;32.59;101691.59;6137605;23;20093;-86
2022/07/20 08:19:16;;;;;;;0.82;0.50;;;;;;;27.30;32.72;101696.38;6136885;23;20013;-85
2022/07/20 08:21:41;;;;;;;3.33;0.45;;;;;;;27.57;32.21;101705.09;6133051;23;20092;-89
2022/07/20 08:24:07;;;;;;;1.15;0.50;;;;;;;27.82;32.19;101707.06;6132502;23;20463;-93
2022/07/20 08:26:33;;;;;;;1.92;0.73;;;;;;;27.80;32.61;101701.03;6131400;23;20009;-86
2022/07/20 08:28:59;;;;;;;7.65;0.98;;;;;;;27.37;32.80;101706.78;6135258;23;20020;-85
2022/07/20 08:31:25;;;;;;;4.20;1.70;;;;;;;27.71;32.22;101720.31;6138308;23;20009;-93
2022/07/20 08:33:52;;;;;;;11.85;1.60;;;;;;;27.82;32.19;101718.28;6140393;23;20013;-94
2022/07/20 08:36:18;;;;;;;1.35;0.85;;;;;;;27.72;32.31;101733.16;6142158;23;20028;-92
2022/07/20 08:38:43;;;;;;;3.88;0.80;;;;;;;27.74;32.24;101733.56;6165691;23;20005;-88
2022/07/20 08:41:09;;;;;;;13.27;1.52;;;;;;;27.70;31.79;101735.56;6164633;23;20016;-90
2022/07/20 08:43:35;;;;;;;5.00;0.68;;;;;;;27.62;32.23;101738.38;6139942;23;20006;-95
2022/07/20 08:46:02;;;;;;;2.42;0.60;;;;;;;27.81;31.79;101745.56;6140190;23;20009;-84
2022/07/20 08:48:31;;;;;;;7.47;1.00;;;;;;;27.64;32.06;101746.38;6140639;23;20006;-89
2022/07/20 08:50:57;;;;;;;2.72;0.70;;;;;;;27.67;32.08;101740.00;6139651;23;20005;-90
2022/07/20 08:53:23;;;;;;;3.65;0.63;;;;;;;27.74;31.77;101745.59;6139313;23;20010;-95
2022/07/20 08:55:49;;;;;;;1.17;1.05;;;;;;;27.72;32.25;101744.38;6137575;23;20081;-91
2022/07/20 08:58:15;;;;;;;3.13;1.48;;;;;;;27.44;32.42;101753.69;6139567;23;20012;-91
2022/07/20 09:00:40;;;;;;;1.55;0.80;;;;;;;27.41;32.24;101748.88;6138283;23;20060;-88
2022/07/20 09:03:08;;;;;;;5.97;2.67;;;;;;;27.48;32.40;101754.47;6135748;23;20012;-88
2022/07/20 09:05:37;;;;;;;2.35;0.82;;;;;;;27.53;32.48;101743.63;6140128;23;20025;-85
2022/07/20 09:08:05;;;;;;;3.45;0.68;;;;;;;27.71;32.17;101745.59;6171000;23;20001;-83
2022/07/20 09:10:37;;;;;;;0.98;0.68;;;;;;;27.65;32.17;101748.78;6141380;23;20028;-86
2022/07/20 09:13:09;;;;;;;1.52;0.70;;;;;;;27.77;31.88;101763.63;6113642;23;20461;-82
2022/07/20 09:15:41;;;;;;;1.35;0.57;;;;;;;27.64;32.01;101758.41;6135358;23;20071;-87
2022/07/20 09:18:10;;;;;;;1.58;0.70;;;;;;;28.03;31.59;101754.66;6135996;23;20441;-85
2022/07/20 09:20:41;;;;;;;5.15;0.85;;;;;;;27.86;31.81;101759.16;6160505;23;20006;-80
2022/07/20 09:23:10;;;;;;;0.85;0.40;;;;;;;27.88;31.81;101755.94;6131417;23;20436;-82
2022/07/20 09:25:37;;;;;;;0.82;0.40;;;;;;;27.92;31.70;101753.94;6134622;23;20040;-90
2022/07/20 09:28:06;;;;;;;4.85;0.68;;;;;;;27.88;31.83;101764.38;6158941;23;20009;-86
2022/07/20 09:30:31;;;;;;;1.02;0.43;;;;;;;27.96;31.56;101760.31;6133542;23;20005;-91
2022/07/20 09:33:03;;;;;;;3.90;1.10;;;;;;;27.89;31.65;101769.59;6156453;23;20008;-83
2022/07/20 09:35:34;;;;;;;6.38;0.90;;;;;;;28.04;31.74;101766.75;6131885;23;20028;-83
2022/07/20 09:38:03;;;;;;;0.85;0.43;;;;;;;27.69;32.05;101768.47;6132214;23;20006;-84
2022/07/20 09:40:43;;;;;;;1.73;0.50;;;;;;;27.45;31.86;101772.13;6129702;23;20010;-85
2022/07/20 09:43:25;;;;;;;1.40;0.50;;;;;;;27.55;31.76;101758.03;6155879;23;20012;-91
2022/07/20 09:45:50;;;;;;;0.70;0.50;;;;;;;27.91;31.46;101766.38;6131023;23;20060;-88
2022/07/20 09:48:20;;;;;;;1.45;0.40;;;;;;;28.09;31.20;101763.47;6132301;23;20097;-93
2022/07/20 09:50:45;;;;;;;26.70;3.58;;;;;;;28.46;30.98;101769.31;6129771;23;20092;-82
2022/07/20 09:53:12;;;;;;;0.65;0.32;;;;;;;28.63;30.80;101776.03;6156397;23;20099;-83
2022/07/20 09:55:39;;;;;;;0.45;0.40;;;;;;;28.66;30.57;101785.66;6133347;23;20049;-83
2022/07/20 09:58:06;;;;;;;10.50;1.85;;;;;;;28.64;30.55;101779.63;6134666;23;20020;-93
2022/07/20 10:00:34;;;;;;;1.13;0.90;;;;;;;28.43;30.93;101775.78;6136034;23;20484;-89
2022/07/20 10:03:02;;;;;;;4.30;0.88;;;;;;;28.21;30.95;101782.69;6155825;23;20005;-83
2022/07/20 10:05:32;;;;;;;3.17;0.63;;;;;;;28.83;30.48;101783.94;6174559;23;20009;-84
2022/07/20 10:08:04;;;;;;;0.30;0.30;;;;;;;28.69;29.90;101787.63;6185867;23;20001;-90
2022/07/20 10:10:31;;;;;;;0.20;0.20;;;;;;;28.70;30.08;101781.59;6159184;23;20032;-90
2022/07/20 10:12:58;;;;;;;2.65;0.55;;;;;;;28.64;30.41;101790.88;6159484;23;20009;-83
2022/07/20 10:15:35;;;;;;;68.05;8.40;;;;;;;29.18;29.85;101783.66;6185764;23;20527;-85
2022/07/20 10:18:01;;;;;;;0.55;0.40;;;;;;;29.11;30.06;101788.56;6160159;23;20083;-79
2022/07/20 10:20:35;;;;;;;1.88;1.27;;;;;;;29.00;30.09;101786.63;6158850;23;20625;-81
2022/07/20 10:23:26;;;;;;;1.67;0.65;;;;;;;29.16;30.07;101783.25;6159039;23;20078;-84
2022/07/20 10:25:51;;;;;;;4.80;1.40;;;;;;;29.31;30.16;101783.91;6143611;23;20038;-84
